sensor_id;sensor_type;location;lat;lon;timestamp;P1;durP1;ratioP1;P2;durP2;ratioP2
73474;SDS011;61711;52.266;10.542;2023-08-06T00:00:06;5.35;;;4.10;;
73474;SDS011;61711;52.266;10.542;2023-08-06T00:02:33;5.35;;;4.40;;
73474;SDS011;61711;52.266;10.542;2023-08-06T00:04:59;6.60;;;4.45;;
73474;SDS011;61711;52.266;10.542;2023-08-06T00:07:25;8.68;;;5.03;;
73474;SDS011;61711;52.266;10.542;2023-08-06T00:09:51;7.53;;;5.40;;
73474;SDS011;61711;52.266;10.542;2023-08-06T00:12:17;6.75;;;5.35;;
73474;SDS011;61711;52.266;10.542;2023-08-06T00:14:43;7.07;;;4.97;;
73474;SDS011;61711;52.266;10.542;2023-08-06T00:17:10;6.75;;;5.18;;
73474;SDS011;61711;52.266;10.542;2023-08-06T00:19:36;5.70;;;4.75;;
73474;SDS011;61711;52.266;10.542;2023-08-06T00:22:02;7.65;;;5.68;;
73474;SDS011;61711;52.266;10.542;2023-08-06T00:24:28;8.32;;;5.57;;
73474;SDS011;61711;52.266;10.542;2023-08-06T00:26:54;6.22;;;5.03;;
73474;SDS011;61711;52.266;10.542;2023-08-06T00:29:20;6.53;;;4.65;;
73474;SDS011;61711;52.266;10.542;2023-08-06T00:31:46;6.10;;;4.57;;
73474;SDS011;61711;52.266;10.542;2023-08-06T00:34:12;6.40;;;5.25;;
73474;SDS011;61711;52.266;10.542;2023-08-06T00:36:38;7.47;;;4.80;;
73474;SDS011;61711;52.266;10.542;2023-08-06T00:39:05;6.63;;;4.82;;
73474;SDS011;61711;52.266;10.542;2023-08-06T00:41:32;6.13;;;4.70;;
73474;SDS011;61711;52.266;10.542;2023-08-06T00:43:58;8.52;;;4.68;;
73474;SDS011;61711;52.266;10.542;2023-08-06T00:46:24;5.85;;;4.63;;
73474;SDS011;61711;52.266;10.542;2023-08-06T00:48:50;5.40;;;4.20;;
73474;SDS011;61711;52.266;10.542;2023-08-06T00:51:16;6.75;;;4.45;;
73474;SDS011;61711;52.266;10.542;2023-08-06T00:53:42;5.35;;;4.00;;
73474;SDS011;61711;52.266;10.542;2023-08-06T00:56:08;4.68;;;3.25;;
73474;SDS011;61711;52.266;10.542;2023-08-06T00:58:35;5.45;;;3.58;;
73474;SDS011;61711;52.266;10.542;2023-08-06T01:01:02;4.10;;;3.40;;
73474;SDS011;61711;52.266;10.542;2023-08-06T01:03:28;4.32;;;3.38;;
73474;SDS011;61711;52.266;10.542;2023-08-06T01:05:54;5.93;;;3.40;;
73474;SDS011;61711;52.266;10.542;2023-08-06T01:11:05;4.32;;;3.47;;
73474;SDS011;61711;52.266;10.542;2023-08-06T01:16:05;3.90;;;3.38;;
73474;SDS011;61711;52.266;10.542;2023-08-06T01:18:32;4.57;;;3.47;;
73474;SDS011;61711;52.266;10.542;2023-08-06T01:20:58;4.90;;;3.83;;
73474;SDS011;61711;52.266;10.542;2023-08-06T01:23:24;4.57;;;3.60;;
73474;SDS011;61711;52.266;10.542;2023-08-06T01:31:01;4.50;;;3.75;;
73474;SDS011;61711;52.266;10.542;2023-08-06T01:33:29;4.38;;;3.75;;
73474;SDS011;61711;52.266;10.542;2023-08-06T01:35:57;5.10;;;4.00;;
73474;SDS011;61711;52.266;10.542;2023-08-06T01:38:23;4.70;;;3.90;;
73474;SDS011;61711;52.266;10.542;2023-08-06T01:40:49;4.70;;;4.20;;
73474;SDS011;61711;52.266;10.542;2023-08-06T01:43:15;5.63;;;4.18;;
73474;SDS011;61711;52.266;10.542;2023-08-06T01:45:43;6.38;;;4.43;;
73474;SDS011;61711;52.266;10.542;2023-08-06T01:48:09;6.70;;;4.82;;
73474;SDS011;61711;52.266;10.542;2023-08-06T01:50:35;7.38;;;5.15;;
73474;SDS011;61711;52.266;10.542;2023-08-06T01:53:01;6.55;;;5.05;;
73474;SDS011;61711;52.266;10.542;2023-08-06T01:55:28;6.80;;;5.57;;
73474;SDS011;61711;52.266;10.542;2023-08-06T01:57:55;8.15;;;5.20;;
73474;SDS011;61711;52.266;10.542;2023-08-06T02:00:21;7.22;;;5.10;;
73474;SDS011;61711;52.266;10.542;2023-08-06T02:02:47;8.05;;;5.35;;
73474;SDS011;61711;52.266;10.542;2023-08-06T02:05:13;6.28;;;5.05;;
73474;SDS011;61711;52.266;10.542;2023-08-06T02:07:39;7.30;;;4.63;;
73474;SDS011;61711;52.266;10.542;2023-08-06T02:10:05;7.22;;;4.88;;
73474;SDS011;61711;52.266;10.542;2023-08-06T02:12:32;6.50;;;5.00;;
73474;SDS011;61711;52.266;10.542;2023-08-06T02:14:58;6.95;;;5.20;;
73474;SDS011;61711;52.266;10.542;2023-08-06T02:17:23;7.03;;;5.15;;
73474;SDS011;61711;52.266;10.542;2023-08-06T02:19:49;8.80;;;5.25;;
73474;SDS011;61711;52.266;10.542;2023-08-06T02:22:15;6.95;;;5.22;;
73474;SDS011;61711;52.266;10.542;2023-08-06T02:24:41;7.80;;;5.50;;
73474;SDS011;61711;52.266;10.542;2023-08-06T02:27:07;7.82;;;5.40;;
73474;SDS011;61711;52.266;10.542;2023-08-06T02:29:33;7.45;;;5.30;;
73474;SDS011;61711;52.266;10.542;2023-08-06T02:32:00;7.72;;;5.25;;
73474;SDS011;61711;52.266;10.542;2023-08-06T02:34:27;9.13;;;5.78;;
73474;SDS011;61711;52.266;10.542;2023-08-06T02:36:53;9.80;;;5.43;;
73474;SDS011;61711;52.266;10.542;2023-08-06T02:39:19;8.02;;;5.38;;
73474;SDS011;61711;52.266;10.542;2023-08-06T02:41:45;7.13;;;5.28;;
73474;SDS011;61711;52.266;10.542;2023-08-06T02:44:11;6.38;;;4.95;;
73474;SDS011;61711;52.266;10.542;2023-08-06T02:46:37;11.75;;;5.65;;
73474;SDS011;61711;52.266;10.542;2023-08-06T02:49:03;7.13;;;4.97;;
73474;SDS011;61711;52.266;10.542;2023-08-06T02:51:29;7.97;;;5.20;;
73474;SDS011;61711;52.266;10.542;2023-08-06T02:53:55;7.88;;;5.30;;
73474;SDS011;61711;52.266;10.542;2023-08-06T02:56:21;8.18;;;5.57;;
73474;SDS011;61711;52.266;10.542;2023-08-06T02:58:47;9.57;;;6.00;;
73474;SDS011;61711;52.266;10.542;2023-08-06T03:01:13;7.47;;;5.65;;
73474;SDS011;61711;52.266;10.542;2023-08-06T03:03:39;7.72;;;5.53;;
73474;SDS011;61711;52.266;10.542;2023-08-06T03:06:05;6.72;;;5.38;;
73474;SDS011;61711;52.266;10.542;2023-08-06T03:08:31;7.18;;;5.50;;
73474;SDS011;61711;52.266;10.542;2023-08-06T03:10:57;7.10;;;5.38;;
73474;SDS011;61711;52.266;10.542;2023-08-06T03:13:23;7.53;;;5.72;;
73474;SDS011;61711;52.266;10.542;2023-08-06T03:15:56;8.10;;;5.38;;
73474;SDS011;61711;52.266;10.542;2023-08-06T03:18:23;7.40;;;5.70;;
73474;SDS011;61711;52.266;10.542;2023-08-06T03:20:50;8.02;;;5.50;;
73474;SDS011;61711;52.266;10.542;2023-08-06T03:23:17;7.82;;;5.70;;
73474;SDS011;61711;52.266;10.542;2023-08-06T03:25:43;7.60;;;5.53;;
73474;SDS011;61711;52.266;10.542;2023-08-06T03:28:09;8.13;;;5.47;;
73474;SDS011;61711;52.266;10.542;2023-08-06T03:30:35;6.45;;;4.90;;
73474;SDS011;61711;52.266;10.542;2023-08-06T03:33:01;7.32;;;5.40;;
73474;SDS011;61711;52.266;10.542;2023-08-06T03:35:27;9.55;;;5.75;;
73474;SDS011;61711;52.266;10.542;2023-08-06T03:37:53;6.90;;;5.35;;
73474;SDS011;61711;52.266;10.542;2023-08-06T03:40:19;8.00;;;5.45;;
73474;SDS011;61711;52.266;10.542;2023-08-06T03:42:45;8.30;;;5.50;;
73474;SDS011;61711;52.266;10.542;2023-08-06T03:45:11;8.55;;;5.70;;
73474;SDS011;61711;52.266;10.542;2023-08-06T03:47:37;9.05;;;5.90;;
73474;SDS011;61711;52.266;10.542;2023-08-06T03:50:03;7.82;;;5.70;;
73474;SDS011;61711;52.266;10.542;2023-08-06T03:52:29;8.88;;;5.90;;
73474;SDS011;61711;52.266;10.542;2023-08-06T03:54:55;8.70;;;5.97;;
73474;SDS011;61711;52.266;10.542;2023-08-06T03:57:21;10.38;;;6.57;;
73474;SDS011;61711;52.266;10.542;2023-08-06T03:59:47;9.07;;;6.53;;
73474;SDS011;61711;52.266;10.542;2023-08-06T04:02:13;8.15;;;5.95;;
73474;SDS011;61711;52.266;10.542;2023-08-06T04:04:39;8.55;;;5.65;;
73474;SDS011;61711;52.266;10.542;2023-08-06T04:07:05;11.50;;;6.00;;
73474;SDS011;61711;52.266;10.542;2023-08-06T04:09:31;8.55;;;5.50;;
73474;SDS011;61711;52.266;10.542;2023-08-06T04:11:57;7.75;;;5.63;;
73474;SDS011;61711;52.266;10.542;2023-08-06T04:14:26;8.88;;;5.85;;
73474;SDS011;61711;52.266;10.542;2023-08-06T04:16:52;8.55;;;5.53;;
73474;SDS011;61711;52.266;10.542;2023-08-06T04:19:18;8.13;;;5.25;;
73474;SDS011;61711;52.266;10.542;2023-08-06T04:21:44;8.05;;;5.28;;
73474;SDS011;61711;52.266;10.542;2023-08-06T04:24:10;7.05;;;4.90;;
73474;SDS011;61711;52.266;10.542;2023-08-06T04:26:36;8.23;;;4.65;;
73474;SDS011;61711;52.266;10.542;2023-08-06T04:29:02;7.72;;;5.10;;
73474;SDS011;61711;52.266;10.542;2023-08-06T04:31:28;8.07;;;5.07;;
73474;SDS011;61711;52.266;10.542;2023-08-06T04:33:54;6.38;;;4.70;;
73474;SDS011;61711;52.266;10.542;2023-08-06T04:36:20;7.65;;;5.15;;
73474;SDS011;61711;52.266;10.542;2023-08-06T04:38:46;8.80;;;5.45;;
73474;SDS011;61711;52.266;10.542;2023-08-06T04:41:12;8.38;;;5.43;;
73474;SDS011;61711;52.266;10.542;2023-08-06T04:43:39;8.18;;;5.40;;
73474;SDS011;61711;52.266;10.542;2023-08-06T04:46:05;8.65;;;5.90;;
73474;SDS011;61711;52.266;10.542;2023-08-06T04:48:31;8.40;;;5.88;;
73474;SDS011;61711;52.266;10.542;2023-08-06T04:50:57;8.57;;;6.03;;
73474;SDS011;61711;52.266;10.542;2023-08-06T04:53:23;9.85;;;5.97;;
73474;SDS011;61711;52.266;10.542;2023-08-06T04:55:49;8.07;;;5.30;;
73474;SDS011;61711;52.266;10.542;2023-08-06T04:58:15;7.50;;;5.93;;
73474;SDS011;61711;52.266;10.542;2023-08-06T05:00:41;8.57;;;5.60;;
73474;SDS011;61711;52.266;10.542;2023-08-06T05:03:07;9.70;;;5.78;;
73474;SDS011;61711;52.266;10.542;2023-08-06T05:05:33;8.05;;;5.50;;
73474;SDS011;61711;52.266;10.542;2023-08-06T05:07:59;8.07;;;5.57;;
73474;SDS011;61711;52.266;10.542;2023-08-06T05:10:25;10.32;;;5.25;;
73474;SDS011;61711;52.266;10.542;2023-08-06T05:12:52;8.30;;;5.50;;
73474;SDS011;61711;52.266;10.542;2023-08-06T05:15:18;7.32;;;4.93;;
73474;SDS011;61711;52.266;10.542;2023-08-06T05:17:44;8.93;;;5.65;;
73474;SDS011;61711;52.266;10.542;2023-08-06T05:20:10;8.93;;;5.38;;
73474;SDS011;61711;52.266;10.542;2023-08-06T05:22:36;7.20;;;5.22;;
73474;SDS011;61711;52.266;10.542;2023-08-06T05:25:02;8.35;;;5.38;;
73474;SDS011;61711;52.266;10.542;2023-08-06T05:27:28;6.30;;;4.82;;
73474;SDS011;61711;52.266;10.542;2023-08-06T05:29:54;7.15;;;4.93;;
73474;SDS011;61711;52.266;10.542;2023-08-06T05:32:23;7.20;;;4.88;;
73474;SDS011;61711;52.266;10.542;2023-08-06T05:34:49;7.75;;;5.15;;
73474;SDS011;61711;52.266;10.542;2023-08-06T05:37:15;8.57;;;4.80;;
73474;SDS011;61711;52.266;10.542;2023-08-06T05:39:41;5.38;;;4.43;;
73474;SDS011;61711;52.266;10.542;2023-08-06T05:42:07;8.15;;;4.80;;
73474;SDS011;61711;52.266;10.542;2023-08-06T05:44:33;7.53;;;4.22;;
73474;SDS011;61711;52.266;10.542;2023-08-06T05:46:59;7.30;;;4.47;;
73474;SDS011;61711;52.266;10.542;2023-08-06T05:49:25;5.95;;;4.35;;
73474;SDS011;61711;52.266;10.542;2023-08-06T05:51:51;4.80;;;4.03;;
73474;SDS011;61711;52.266;10.542;2023-08-06T05:54:18;5.97;;;4.38;;
73474;SDS011;61711;52.266;10.542;2023-08-06T05:56:44;5.68;;;3.85;;
73474;SDS011;61711;52.266;10.542;2023-08-06T05:59:10;5.43;;;4.10;;
73474;SDS011;61711;52.266;10.542;2023-08-06T06:01:36;5.32;;;3.70;;
73474;SDS011;61711;52.266;10.542;2023-08-06T06:04:02;4.38;;;3.63;;
73474;SDS011;61711;52.266;10.542;2023-08-06T06:06:28;5.35;;;3.50;;
73474;SDS011;61711;52.266;10.542;2023-08-06T06:08:54;5.78;;;3.88;;
73474;SDS011;61711;52.266;10.542;2023-08-06T06:11:20;7.32;;;4.25;;
73474;SDS011;61711;52.266;10.542;2023-08-06T06:13:48;5.88;;;4.00;;
73474;SDS011;61711;52.266;10.542;2023-08-06T06:16:15;6.20;;;4.28;;
73474;SDS011;61711;52.266;10.542;2023-08-06T06:18:41;6.68;;;4.07;;
73474;SDS011;61711;52.266;10.542;2023-08-06T06:21:07;6.28;;;3.75;;
73474;SDS011;61711;52.266;10.542;2023-08-06T06:23:33;4.65;;;3.60;;
73474;SDS011;61711;52.266;10.542;2023-08-06T06:25:59;5.90;;;4.07;;
73474;SDS011;61711;52.266;10.542;2023-08-06T06:28:25;6.55;;;4.13;;
73474;SDS011;61711;52.266;10.542;2023-08-06T06:30:51;5.07;;;4.13;;
73474;SDS011;61711;52.266;10.542;2023-08-06T06:33:17;6.25;;;3.75;;
73474;SDS011;61711;52.266;10.542;2023-08-06T06:35:43;9.38;;;4.15;;
73474;SDS011;61711;52.266;10.542;2023-08-06T06:38:09;5.32;;;3.78;;
73474;SDS011;61711;52.266;10.542;2023-08-06T06:40:35;7.50;;;3.80;;
73474;SDS011;61711;52.266;10.542;2023-08-06T06:43:01;5.22;;;3.90;;
73474;SDS011;61711;52.266;10.542;2023-08-06T06:45:27;4.80;;;3.47;;
73474;SDS011;61711;52.266;10.542;2023-08-06T06:47:53;5.85;;;3.40;;
73474;SDS011;61711;52.266;10.542;2023-08-06T06:50:19;4.50;;;3.22;;
73474;SDS011;61711;52.266;10.542;2023-08-06T06:52:45;5.38;;;3.20;;
73474;SDS011;61711;52.266;10.542;2023-08-06T06:55:11;5.47;;;3.00;;
73474;SDS011;61711;52.266;10.542;2023-08-06T06:57:37;4.13;;;2.90;;
73474;SDS011;61711;52.266;10.542;2023-08-06T07:00:03;4.15;;;3.08;;
73474;SDS011;61711;52.266;10.542;2023-08-06T07:02:29;3.50;;;2.83;;
73474;SDS011;61711;52.266;10.542;2023-08-06T07:04:55;4.03;;;3.20;;
73474;SDS011;61711;52.266;10.542;2023-08-06T07:07:21;7.60;;;4.45;;
73474;SDS011;61711;52.266;10.542;2023-08-06T07:09:47;5.05;;;3.13;;
73474;SDS011;61711;52.266;10.542;2023-08-06T07:12:13;3.80;;;2.88;;
73474;SDS011;61711;52.266;10.542;2023-08-06T07:14:39;4.57;;;3.00;;
73474;SDS011;61711;52.266;10.542;2023-08-06T07:17:05;4.00;;;3.15;;
73474;SDS011;61711;52.266;10.542;2023-08-06T07:19:31;6.47;;;2.80;;
73474;SDS011;61711;52.266;10.542;2023-08-06T07:21:57;2.92;;;2.50;;
73474;SDS011;61711;52.266;10.542;2023-08-06T07:24:23;3.15;;;2.40;;
73474;SDS011;61711;52.266;10.542;2023-08-06T07:26:49;2.63;;;2.13;;
73474;SDS011;61711;52.266;10.542;2023-08-06T07:29:17;3.90;;;2.50;;
73474;SDS011;61711;52.266;10.542;2023-08-06T07:31:46;2.92;;;2.42;;
73474;SDS011;61711;52.266;10.542;2023-08-06T07:34:12;4.18;;;2.85;;
73474;SDS011;61711;52.266;10.542;2023-08-06T07:36:38;3.28;;;2.90;;
73474;SDS011;61711;52.266;10.542;2023-08-06T07:39:04;2.80;;;2.45;;
73474;SDS011;61711;52.266;10.542;2023-08-06T07:41:31;6.30;;;4.75;;
73474;SDS011;61711;52.266;10.542;2023-08-06T07:43:57;5.93;;;4.65;;
73474;SDS011;61711;52.266;10.542;2023-08-06T07:46:23;4.22;;;3.00;;
73474;SDS011;61711;52.266;10.542;2023-08-06T07:48:49;3.30;;;2.75;;
73474;SDS011;61711;52.266;10.542;2023-08-06T07:51:15;3.22;;;2.70;;
73474;SDS011;61711;52.266;10.542;2023-08-06T07:53:41;3.35;;;3.00;;
73474;SDS011;61711;52.266;10.542;2023-08-06T07:56:07;4.78;;;3.20;;
73474;SDS011;61711;52.266;10.542;2023-08-06T07:58:34;3.40;;;2.67;;
73474;SDS011;61711;52.266;10.542;2023-08-06T08:01:00;4.80;;;2.65;;
73474;SDS011;61711;52.266;10.542;2023-08-06T08:03:26;5.43;;;3.38;;
73474;SDS011;61711;52.266;10.542;2023-08-06T08:05:54;3.05;;;2.60;;
73474;SDS011;61711;52.266;10.542;2023-08-06T08:08:23;3.30;;;3.00;;
73474;SDS011;61711;52.266;10.542;2023-08-06T08:10:49;4.43;;;2.90;;
73474;SDS011;61711;52.266;10.542;2023-08-06T08:13:16;3.70;;;2.80;;
73474;SDS011;61711;52.266;10.542;2023-08-06T08:15:42;4.47;;;2.85;;
73474;SDS011;61711;52.266;10.542;2023-08-06T08:18:08;3.90;;;2.80;;
73474;SDS011;61711;52.266;10.542;2023-08-06T08:20:34;3.63;;;3.00;;
73474;SDS011;61711;52.266;10.542;2023-08-06T08:23:01;4.65;;;3.45;;
73474;SDS011;61711;52.266;10.542;2023-08-06T08:25:27;3.88;;;3.10;;
73474;SDS011;61711;52.266;10.542;2023-08-06T08:27:53;3.75;;;2.70;;
73474;SDS011;61711;52.266;10.542;2023-08-06T08:30:20;4.57;;;3.35;;
73474;SDS011;61711;52.266;10.542;2023-08-06T08:32:46;3.70;;;3.10;;
73474;SDS011;61711;52.266;10.542;2023-08-06T08:35:12;3.63;;;2.80;;
73474;SDS011;61711;52.266;10.542;2023-08-06T08:37:38;3.50;;;2.95;;
73474;SDS011;61711;52.266;10.542;2023-08-06T08:40:05;3.45;;;3.00;;
73474;SDS011;61711;52.266;10.542;2023-08-06T08:42:31;4.78;;;2.95;;
73474;SDS011;61711;52.266;10.542;2023-08-06T08:44:57;2.90;;;2.60;;
73474;SDS011;61711;52.266;10.542;2023-08-06T08:47:24;3.58;;;3.00;;
73474;SDS011;61711;52.266;10.542;2023-08-06T08:49:52;3.85;;;2.75;;
73474;SDS011;61711;52.266;10.542;2023-08-06T08:52:22;5.37;;;3.03;;
73474;SDS011;61711;52.266;10.542;2023-08-06T08:54:49;3.35;;;2.80;;
73474;SDS011;61711;52.266;10.542;2023-08-06T08:57:17;3.35;;;2.60;;
73474;SDS011;61711;52.266;10.542;2023-08-06T08:59:43;5.88;;;3.70;;
73474;SDS011;61711;52.266;10.542;2023-08-06T09:02:13;4.80;;;2.88;;
73474;SDS011;61711;52.266;10.542;2023-08-06T09:04:40;3.85;;;2.83;;
73474;SDS011;61711;52.266;10.542;2023-08-06T09:07:07;3.05;;;2.20;;
73474;SDS011;61711;52.266;10.542;2023-08-06T09:09:34;2.35;;;2.15;;
73474;SDS011;61711;52.266;10.542;2023-08-06T09:12:06;3.53;;;2.33;;
73474;SDS011;61711;52.266;10.542;2023-08-06T09:14:33;3.33;;;2.30;;
73474;SDS011;61711;52.266;10.542;2023-08-06T09:17:00;2.33;;;2.13;;
73474;SDS011;61711;52.266;10.542;2023-08-06T09:19:26;2.53;;;2.33;;
73474;SDS011;61711;52.266;10.542;2023-08-06T09:21:53;2.80;;;2.25;;
73474;SDS011;61711;52.266;10.542;2023-08-06T09:24:21;2.35;;;2.08;;
73474;SDS011;61711;52.266;10.542;2023-08-06T09:26:47;2.65;;;2.33;;
73474;SDS011;61711;52.266;10.542;2023-08-06T09:29:13;2.85;;;2.47;;
73474;SDS011;61711;52.266;10.542;2023-08-06T09:31:42;2.35;;;2.13;;
73474;SDS011;61711;52.266;10.542;2023-08-06T09:34:14;2.85;;;2.20;;
73474;SDS011;61711;52.266;10.542;2023-08-06T09:36:47;3.78;;;2.42;;
73474;SDS011;61711;52.266;10.542;2023-08-06T09:39:14;2.22;;;2.03;;
73474;SDS011;61711;52.266;10.542;2023-08-06T09:41:41;2.90;;;2.17;;
73474;SDS011;61711;52.266;10.542;2023-08-06T09:44:15;4.05;;;2.42;;
73474;SDS011;61711;52.266;10.542;2023-08-06T09:46:42;2.83;;;2.60;;
73474;SDS011;61711;52.266;10.542;2023-08-06T09:49:08;2.63;;;2.40;;
73474;SDS011;61711;52.266;10.542;2023-08-06T09:51:35;2.40;;;2.20;;
73474;SDS011;61711;52.266;10.542;2023-08-06T09:54:04;2.80;;;2.30;;
73474;SDS011;61711;52.266;10.542;2023-08-06T09:56:31;2.63;;;2.15;;
73474;SDS011;61711;52.266;10.542;2023-08-06T09:59:02;2.30;;;2.03;;
73474;SDS011;61711;52.266;10.542;2023-08-06T10:01:29;2.50;;;2.20;;
73474;SDS011;61711;52.266;10.542;2023-08-06T10:03:56;3.03;;;2.42;;
73474;SDS011;61711;52.266;10.542;2023-08-06T10:06:23;3.60;;;2.30;;
73474;SDS011;61711;52.266;10.542;2023-08-06T10:08:50;2.58;;;2.33;;
73474;SDS011;61711;52.266;10.542;2023-08-06T10:11:16;4.20;;;2.40;;
73474;SDS011;61711;52.266;10.542;2023-08-06T10:13:43;6.75;;;4.90;;
73474;SDS011;61711;52.266;10.542;2023-08-06T10:16:09;3.88;;;2.90;;
73474;SDS011;61711;52.266;10.542;2023-08-06T10:18:36;3.00;;;2.05;;
73474;SDS011;61711;52.266;10.542;2023-08-06T10:21:06;2.40;;;2.10;;
73474;SDS011;61711;52.266;10.542;2023-08-06T10:23:33;2.50;;;2.30;;
73474;SDS011;61711;52.266;10.542;2023-08-06T10:26:00;2.40;;;2.20;;
73474;SDS011;61711;52.266;10.542;2023-08-06T10:28:39;2.85;;;2.10;;
73474;SDS011;61711;52.266;10.542;2023-08-06T10:31:05;3.38;;;2.33;;
73474;SDS011;61711;52.266;10.542;2023-08-06T10:33:41;4.03;;;2.33;;
73474;SDS011;61711;52.266;10.542;2023-08-06T10:36:11;3.33;;;2.20;;
73474;SDS011;61711;52.266;10.542;2023-08-06T10:38:44;2.80;;;2.20;;
73474;SDS011;61711;52.266;10.542;2023-08-06T10:41:14;2.40;;;2.20;;
73474;SDS011;61711;52.266;10.542;2023-08-06T10:43:41;2.85;;;2.40;;
73474;SDS011;61711;52.266;10.542;2023-08-06T10:46:13;3.65;;;3.00;;
73474;SDS011;61711;52.266;10.542;2023-08-06T10:48:46;3.75;;;2.20;;
73474;SDS011;61711;52.266;10.542;2023-08-06T10:51:13;3.63;;;2.10;;
73474;SDS011;61711;52.266;10.542;2023-08-06T10:53:43;1.98;;;1.77;;
73474;SDS011;61711;52.266;10.542;2023-08-06T10:56:13;1.98;;;1.80;;
73474;SDS011;61711;52.266;10.542;2023-08-06T10:58:40;3.25;;;2.15;;
73474;SDS011;61711;52.266;10.542;2023-08-06T11:01:06;2.15;;;1.98;;
73474;SDS011;61711;52.266;10.542;2023-08-06T11:03:35;3.40;;;2.10;;
73474;SDS011;61711;52.266;10.542;2023-08-06T11:06:01;2.95;;;1.83;;
73474;SDS011;61711;52.266;10.542;2023-08-06T11:08:28;3.60;;;2.40;;
73474;SDS011;61711;52.266;10.542;2023-08-06T11:10:54;3.05;;;2.10;;
73474;SDS011;61711;52.266;10.542;2023-08-06T11:13:21;2.58;;;2.30;;
73474;SDS011;61711;52.266;10.542;2023-08-06T11:15:47;2.83;;;2.22;;
73474;SDS011;61711;52.266;10.542;2023-08-06T11:18:13;3.90;;;2.30;;
73474;SDS011;61711;52.266;10.542;2023-08-06T11:20:39;2.30;;;2.10;;
73474;SDS011;61711;52.266;10.542;2023-08-06T11:23:05;3.00;;;2.05;;
73474;SDS011;61711;52.266;10.542;2023-08-06T11:25:36;2.47;;;2.10;;
73474;SDS011;61711;52.266;10.542;2023-08-06T11:28:02;2.97;;;2.40;;
73474;SDS011;61711;52.266;10.542;2023-08-06T11:30:29;2.38;;;2.10;;
73474;SDS011;61711;52.266;10.542;2023-08-06T11:32:55;2.25;;;2.05;;
73474;SDS011;61711;52.266;10.542;2023-08-06T11:35:22;4.03;;;2.22;;
73474;SDS011;61711;52.266;10.542;2023-08-06T11:37:48;2.40;;;2.20;;
73474;SDS011;61711;52.266;10.542;2023-08-06T11:40:14;2.47;;;1.90;;
73474;SDS011;61711;52.266;10.542;2023-08-06T11:42:41;3.80;;;2.10;;
73474;SDS011;61711;52.266;10.542;2023-08-06T11:45:08;4.10;;;2.78;;
73474;SDS011;61711;52.266;10.542;2023-08-06T11:47:37;2.63;;;2.20;;
73474;SDS011;61711;52.266;10.542;2023-08-06T11:50:04;3.08;;;2.40;;
73474;SDS011;61711;52.266;10.542;2023-08-06T11:52:30;4.00;;;2.33;;
73474;SDS011;61711;52.266;10.542;2023-08-06T11:55:03;2.67;;;2.22;;
73474;SDS011;61711;52.266;10.542;2023-08-06T11:57:35;3.35;;;2.40;;
73474;SDS011;61711;52.266;10.542;2023-08-06T12:00:04;3.25;;;2.38;;
73474;SDS011;61711;52.266;10.542;2023-08-06T12:02:32;2.55;;;2.35;;
73474;SDS011;61711;52.266;10.542;2023-08-06T12:07:46;3.30;;;2.22;;
73474;SDS011;61711;52.266;10.542;2023-08-06T12:10:13;2.63;;;2.35;;
73474;SDS011;61711;52.266;10.542;2023-08-06T12:12:39;3.83;;;2.22;;
73474;SDS011;61711;52.266;10.542;2023-08-06T12:15:05;12.40;;;10.52;;
73474;SDS011;61711;52.266;10.542;2023-08-06T12:17:32;4.07;;;2.50;;
73474;SDS011;61711;52.266;10.542;2023-08-06T12:19:58;2.53;;;2.33;;
73474;SDS011;61711;52.266;10.542;2023-08-06T12:22:24;3.47;;;2.50;;
73474;SDS011;61711;52.266;10.542;2023-08-06T12:24:51;2.95;;;2.50;;
73474;SDS011;61711;52.266;10.542;2023-08-06T12:27:17;3.55;;;2.50;;
73474;SDS011;61711;52.266;10.542;2023-08-06T12:29:47;3.08;;;2.40;;
73474;SDS011;61711;52.266;10.542;2023-08-06T12:32:14;2.42;;;2.17;;
73474;SDS011;61711;52.266;10.542;2023-08-06T12:34:40;2.20;;;2.00;;
73474;SDS011;61711;52.266;10.542;2023-08-06T12:37:07;3.53;;;2.05;;
73474;SDS011;61711;52.266;10.542;2023-08-06T12:39:33;2.30;;;1.95;;
73474;SDS011;61711;52.266;10.542;2023-08-06T12:42:03;2.53;;;2.05;;
73474;SDS011;61711;52.266;10.542;2023-08-06T12:44:29;2.17;;;2.00;;
73474;SDS011;61711;52.266;10.542;2023-08-06T12:46:55;3.25;;;2.30;;
73474;SDS011;61711;52.266;10.542;2023-08-06T12:49:22;2.40;;;2.20;;
73474;SDS011;61711;52.266;10.542;2023-08-06T12:51:51;2.42;;;2.17;;
73474;SDS011;61711;52.266;10.542;2023-08-06T12:54:17;2.22;;;2.03;;
73474;SDS011;61711;52.266;10.542;2023-08-06T12:56:44;4.18;;;2.10;;
73474;SDS011;61711;52.266;10.542;2023-08-06T12:59:10;2.03;;;1.83;;
73474;SDS011;61711;52.266;10.542;2023-08-06T13:01:39;2.22;;;2.03;;
73474;SDS011;61711;52.266;10.542;2023-08-06T13:04:05;2.45;;;2.15;;
73474;SDS011;61711;52.266;10.542;2023-08-06T13:06:31;2.10;;;1.77;;
73474;SDS011;61711;52.266;10.542;2023-08-06T13:09:07;2.20;;;2.00;;
73474;SDS011;61711;52.266;10.542;2023-08-06T13:11:34;2.65;;;2.10;;
73474;SDS011;61711;52.266;10.542;2023-08-06T13:14:05;3.40;;;1.90;;
73474;SDS011;61711;52.266;10.542;2023-08-06T13:16:32;2.08;;;1.88;;
73474;SDS011;61711;52.266;10.542;2023-08-06T13:18:58;3.15;;;2.17;;
73474;SDS011;61711;52.266;10.542;2023-08-06T13:21:31;2.38;;;1.90;;
73474;SDS011;61711;52.266;10.542;2023-08-06T13:23:57;2.03;;;1.90;;
73474;SDS011;61711;52.266;10.542;2023-08-06T13:26:23;2.40;;;2.20;;
73474;SDS011;61711;52.266;10.542;2023-08-06T13:28:49;2.95;;;1.83;;
73474;SDS011;61711;52.266;10.542;2023-08-06T13:31:16;2.40;;;2.10;;
73474;SDS011;61711;52.266;10.542;2023-08-06T13:33:42;2.20;;;2.00;;
73474;SDS011;61711;52.266;10.542;2023-08-06T13:36:08;3.03;;;1.88;;
73474;SDS011;61711;52.266;10.542;2023-08-06T13:38:34;2.85;;;1.90;;
73474;SDS011;61711;52.266;10.542;2023-08-06T13:41:00;2.63;;;2.00;;
73474;SDS011;61711;52.266;10.542;2023-08-06T13:43:27;2.67;;;2.10;;
73474;SDS011;61711;52.266;10.542;2023-08-06T13:45:53;2.28;;;2.08;;
73474;SDS011;61711;52.266;10.542;2023-08-06T13:48:19;3.13;;;2.85;;
73474;SDS011;61711;52.266;10.542;2023-08-06T13:50:45;2.25;;;2.05;;
73474;SDS011;61711;52.266;10.542;2023-08-06T13:53:11;2.30;;;2.10;;
73474;SDS011;61711;52.266;10.542;2023-08-06T13:55:37;2.42;;;1.90;;
73474;SDS011;61711;52.266;10.542;2023-08-06T13:58:03;3.40;;;2.05;;
73474;SDS011;61711;52.266;10.542;2023-08-06T14:00:29;2.58;;;1.88;;
73474;SDS011;61711;52.266;10.542;2023-08-06T14:02:55;2.08;;;1.95;;
73474;SDS011;61711;52.266;10.542;2023-08-06T14:05:21;3.22;;;2.00;;
73474;SDS011;61711;52.266;10.542;2023-08-06T14:07:47;2.05;;;1.90;;
73474;SDS011;61711;52.266;10.542;2023-08-06T14:10:13;2.40;;;2.10;;
73474;SDS011;61711;52.266;10.542;2023-08-06T14:12:39;2.20;;;2.00;;
73474;SDS011;61711;52.266;10.542;2023-08-06T14:15:05;2.45;;;2.20;;
73474;SDS011;61711;52.266;10.542;2023-08-06T14:17:32;2.90;;;2.10;;
73474;SDS011;61711;52.266;10.542;2023-08-06T14:19:58;3.63;;;2.25;;
73474;SDS011;61711;52.266;10.542;2023-08-06T14:22:25;2.55;;;2.28;;
73474;SDS011;61711;52.266;10.542;2023-08-06T14:24:51;2.72;;;2.53;;
73474;SDS011;61711;52.266;10.542;2023-08-06T14:27:18;2.33;;;2.13;;
73474;SDS011;61711;52.266;10.542;2023-08-06T14:29:44;2.70;;;2.40;;
73474;SDS011;61711;52.266;10.542;2023-08-06T14:32:10;2.80;;;2.30;;
73474;SDS011;61711;52.266;10.542;2023-08-06T14:34:36;2.42;;;2.22;;
73474;SDS011;61711;52.266;10.542;2023-08-06T14:37:02;3.13;;;2.50;;
73474;SDS011;61711;52.266;10.542;2023-08-06T14:39:28;3.45;;;2.72;;
73474;SDS011;61711;52.266;10.542;2023-08-06T14:41:54;3.33;;;2.42;;